Time;durP1;ratioP1;P1;durP2;ratioP2;P2;SDS_P1;SDS_P2;PMS_P1;PMS_P2;Temp;Humidity;BMP_temperature;BMP_pressure;BME280_temperature;BME280_humidity;BME280_pressure;Samples;Min_cycle;Max_cycle;Signal;HPM_P1;HPM_P2
2021/12/19 00:02:12;;;;;;;;;;;5.40;99.90;;;;;;5073639;28;19912;-81
2021/12/19 00:10:13;;;;;;;;;;;5.30;99.90;;;;;;5073381;28;19915;-78
2021/12/19 00:12:39;;;;;;;;;;;5.30;99.90;;;;;;5073418;28;20297;-80
2021/12/19 00:15:05;;;;;;;;;;;5.40;99.90;;;;;;5073305;28;19946;-81
2021/12/19 00:17:30;;;;;;;;;;;5.50;99.90;;;;;;5078771;28;19908;-80
2021/12/19 00:19:56;;;;;;;;;;;5.40;99.90;;;;;;5093713;28;19912;-80
2021/12/19 00:22:22;;;;;;;;;;;5.40;99.90;;;;;;5093585;28;19915;-80
2021/12/19 00:24:47;;;;;;;;;;;5.30;99.90;;;;;;5093586;28;19947;-80
2021/12/19 00:27:13;;;;;;;;;;;5.40;99.90;;;;;;5091988;28;20007;-80
2021/12/19 00:29:38;;;;;;;;;;;5.40;99.90;;;;;;5093659;28;20261;-80
2021/12/19 00:32:04;;;;;;;;;;;5.30;99.90;;;;;;5093537;28;19957;-79
2021/12/19 00:34:29;;;;;;;;;;;5.10;99.90;;;;;;5093512;28;20292;-80
2021/12/19 00:36:55;;;;;;;;;;;5.10;99.90;;;;;;5075490;28;20002;-78
2021/12/19 00:39:21;;;;;;;;;;;5.10;99.90;;;;;;5093315;28;20367;-79
2021/12/19 00:41:52;;;;;;;;;;;5.10;99.90;;;;;;5093465;28;19908;-78
2021/12/19 00:44:22;;;;;;;;;;;5.00;99.90;;;;;;5093477;28;20054;-77
2021/12/19 00:46:51;;;;;;;;;;;5.00;99.90;;;;;;5093434;28;20304;-82
2021/12/19 00:49:18;;;;;;;;;;;4.90;99.90;;;;;;5073564;28;20399;-80
2021/12/19 00:51:44;;;;;;;;;;;5.00;99.90;;;;;;5093432;28;19908;-80
2021/12/19 00:54:10;;;;;;;;;;;5.20;99.90;;;;;;5093440;28;19908;-81
2021/12/19 00:56:40;;;;;;;;;;;5.00;99.90;;;;;;5075179;28;20387;-80
2021/12/19 00:59:05;;;;;;;;;;;5.00;99.90;;;;;;5092779;28;19919;-80
2021/12/19 01:01:31;;;;;;;;;;;5.10;99.90;;;;;;5074972;28;19908;-77
2021/12/19 01:03:57;;;;;;;;;;;5.10;99.90;;;;;;5075440;28;19975;-80
2021/12/19 01:06:23;;;;;;;;;;;4.90;99.90;;;;;;5093261;28;19915;-80
2021/12/19 01:08:48;;;;;;;;;;;4.70;99.90;;;;;;5074624;28;19965;-80
2021/12/19 01:11:14;;;;;;;;;;;4.60;99.90;;;;;;5075132;28;20297;-79
2021/12/19 01:13:40;;;;;;;;;;;4.60;99.90;;;;;;5096281;28;19927;-80
2021/12/19 01:16:06;;;;;;;;;;;4.80;99.90;;;;;;5079080;28;19908;-78
2021/12/19 01:18:31;;;;;;;;;;;4.90;99.90;;;;;;5084082;28;20335;-80
2021/12/19 01:20:57;;;;;;;;;;;4.80;99.90;;;;;;5077193;28;20011;-79
2021/12/19 01:23:23;;;;;;;;;;;4.90;99.90;;;;;;5076758;28;19991;-80
2021/12/19 01:25:49;;;;;;;;;;;5.00;99.90;;;;;;5076412;28;20365;-80
2021/12/19 01:28:14;;;;;;;;;;;4.90;99.90;;;;;;5076406;28;19908;-82
2021/12/19 01:30:40;;;;;;;;;;;4.90;99.90;;;;;;5076637;28;19985;-80
2021/12/19 01:33:07;;;;;;;;;;;4.80;99.90;;;;;;5076469;28;19908;-80
2021/12/19 01:35:33;;;;;;;;;;;4.80;99.90;;;;;;5076539;28;19909;-81
2021/12/19 01:37:58;;;;;;;;;;;4.80;99.90;;;;;;5076079;28;20368;-79
2021/12/19 01:40:24;;;;;;;;;;;4.80;99.90;;;;;;5058382;28;19970;-79
2021/12/19 01:42:51;;;;;;;;;;;4.70;99.90;;;;;;5058407;28;20287;-82
2021/12/19 01:45:25;;;;;;;;;;;4.60;99.90;;;;;;5076322;28;19908;-80
2021/12/19 01:47:51;;;;;;;;;;;4.50;99.90;;;;;;5058036;28;19908;-77
2021/12/19 01:50:17;;;;;;;;;;;4.40;99.90;;;;;;5057277;28;20007;-81
2021/12/19 01:52:43;;;;;;;;;;;4.30;99.90;;;;;;5076099;28;19908;-80
2021/12/19 01:55:09;;;;;;;;;;;4.20;99.90;;;;;;5076347;28;19916;-80
2021/12/19 01:57:34;;;;;;;;;;;4.00;99.90;;;;;;5057799;28;19952;-78
2021/12/19 02:00:00;;;;;;;;;;;3.90;99.90;;;;;;5076036;28;20407;-78
2021/12/19 02:02:26;;;;;;;;;;;3.80;99.90;;;;;;5075906;28;20296;-79
2021/12/19 02:04:51;;;;;;;;;;;3.90;99.90;;;;;;5075959;28;19909;-82
2021/12/19 02:07:17;;;;;;;;;;;4.10;99.90;;;;;;5075794;28;19912;-81
2021/12/19 02:09:43;;;;;;;;;;;4.20;99.90;;;;;;5075842;28;20288;-81
2021/12/19 02:12:09;;;;;;;;;;;4.30;99.90;;;;;;5050901;28;19923;-80
2021/12/19 02:14:35;;;;;;;;;;;4.30;99.90;;;;;;5035768;28;20404;-81
2021/12/19 02:17:00;;;;;;;;;;;4.20;99.90;;;;;;5035783;28;19913;-79
2021/12/19 02:19:28;;;;;;;;;;;4.10;99.90;;;;;;5035161;28;19920;-82
2021/12/19 02:21:54;;;;;;;;;;;3.90;99.90;;;;;;5034545;28;19920;-78
2021/12/19 02:24:20;;;;;;;;;;;3.90;99.90;;;;;;5034447;28;19909;-80
2021/12/19 02:26:47;;;;;;;;;;;4.00;99.90;;;;;;5035448;28;19964;-79
2021/12/19 02:29:12;;;;;;;;;;;4.10;99.90;;;;;;5033843;28;19909;-77
2021/12/19 02:31:38;;;;;;;;;;;4.20;99.90;;;;;;5035552;28;20286;-82
2021/12/19 02:34:15;;;;;;;;;;;4.40;99.90;;;;;;5035488;28;19909;-81
2021/12/19 02:50:09;;;;;;;;;;;4.20;99.90;;;;;;5035248;28;20432;-79
2021/12/19 02:52:35;;;;;;;;;;;4.20;99.90;;;;;;5047088;28;20373;-79
2021/12/19 02:55:01;;;;;;;;;;;4.00;99.90;;;;;;5054968;28;19909;-80
2021/12/19 02:57:27;;;;;;;;;;;3.90;99.90;;;;;;5053572;28;19909;-80
2021/12/19 02:59:52;;;;;;;;;;;3.60;99.90;;;;;;5054991;28;19962;-81
2021/12/19 03:02:18;;;;;;;;;;;3.50;99.90;;;;;;5042895;28;19979;-80
2021/12/19 03:04:57;;;;;;;;;;;3.40;99.90;;;;;;5034797;28;19910;-78
2021/12/19 03:07:24;;;;;;;;;;;3.40;99.90;;;;;;5034871;28;19909;-82
2021/12/19 03:18:00;;;;;;;;;;;4.00;99.90;;;;;;5074390;28;20007;-79
2021/12/19 03:20:26;;;;;;;;;;;3.80;99.90;;;;;;5074529;28;19916;-80
2021/12/19 03:22:52;;;;;;;;;;;3.70;99.90;;;;;;5074052;28;19915;-81
2021/12/19 03:25:18;;;;;;;;;;;3.80;99.90;;;;;;5074535;28;19913;-81
2021/12/19 03:27:43;;;;;;;;;;;3.90;99.90;;;;;;5074397;28;19909;-82
2021/12/19 03:30:09;;;;;;;;;;;3.70;99.90;;;;;;5074055;28;19915;-77
2021/12/19 03:32:35;;;;;;;;;;;3.80;99.90;;;;;;5073847;28;20292;-78
2021/12/19 03:35:01;;;;;;;;;;;3.90;99.90;;;;;;5073834;28;19955;-81
2021/12/19 03:37:27;;;;;;;;;;;4.00;99.90;;;;;;5074221;28;19912;-78
2021/12/19 03:40:09;;;;;;;;;;;3.90;99.90;;;;;;5074085;28;19912;-80
2021/12/19 03:42:36;;;;;;;;;;;3.60;99.90;;;;;;5073768;28;19915;-81
2021/12/19 03:45:02;;;;;;;;;;;3.40;99.90;;;;;;5065082;28;19916;-80
2021/12/19 03:47:28;;;;;;;;;;;3.50;99.90;;;;;;5073720;28;19919;-79
2021/12/19 03:49:53;;;;;;;;;;;3.50;99.90;;;;;;5074041;28;19912;-81
2021/12/19 03:52:19;;;;;;;;;;;3.60;99.90;;;;;;5055589;28;19993;-78
2021/12/19 03:54:45;;;;;;;;;;;3.70;99.90;;;;;;5055893;28;19908;-79
2021/12/19 03:57:10;;;;;;;;;;;3.60;99.90;;;;;;5073852;28;19908;-81
2021/12/19 03:59:36;;;;;;;;;;;3.60;99.90;;;;;;5073392;28;20004;-80
2021/12/19 04:02:02;;;;;;;;;;;3.80;99.90;;;;;;5073403;28;20376;-82
2021/12/19 04:04:30;;;;;;;;;;;3.80;99.90;;;;;;5073767;28;20369;-80
2021/12/19 04:06:56;;;;;;;;;;;3.90;99.90;;;;;;5055817;28;19915;-82
2021/12/19 04:09:21;;;;;;;;;;;3.80;99.90;;;;;;5055759;28;19908;-80
2021/12/19 04:11:49;;;;;;;;;;;3.80;99.90;;;;;;5055181;28;19909;-78
2021/12/19 04:14:15;;;;;;;;;;;3.70;99.90;;;;;;5051996;28;20369;-79
2021/12/19 04:16:42;;;;;;;;;;;3.80;99.90;;;;;;5052260;28;19919;-81
2021/12/19 04:19:09;;;;;;;;;;;3.80;99.90;;;;;;5052222;28;20434;-81
2021/12/19 04:21:34;;;;;;;;;;;3.70;99.90;;;;;;5053235;28;19908;-81
2021/12/19 04:24:00;;;;;;;;;;;3.60;99.90;;;;;;5053441;28;19909;-78
2021/12/19 04:26:25;;;;;;;;;;;3.50;99.90;;;;;;5052188;28;19909;-82
2021/12/19 04:28:51;;;;;;;;;;;3.50;99.90;;;;;;5052023;28;19909;-79
2021/12/19 04:31:17;;;;;;;;;;;3.50;99.90;;;;;;5053498;28;19908;-80
2021/12/19 04:33:42;;;;;;;;;;;3.50;99.90;;;;;;5052735;28;19909;-81
2021/12/19 04:36:11;;;;;;;;;;;3.70;99.90;;;;;;5053353;28;19939;-79
2021/12/19 05:15:31;;;;;;;;;;;3.80;99.90;;;;;;5072876;28;19918;-79
2021/12/19 05:18:02;;;;;;;;;;;3.50;99.90;;;;;;5054819;28;19912;-82
2021/12/19 05:20:29;;;;;;;;;;;3.40;99.90;;;;;;5054657;28;19924;-80
2021/12/19 05:23:01;;;;;;;;;;;3.40;99.90;;;;;;5054429;28;20288;-81
2021/12/19 05:25:27;;;;;;;;;;;3.40;99.90;;;;;;5054661;28;20402;-79
2021/12/19 05:27:56;;;;;;;;;;;3.50;99.90;;;;;;5072838;28;19908;-79
2021/12/19 05:30:23;;;;;;;;;;;3.40;99.90;;;;;;5072630;28;20334;-82
2021/12/19 05:32:50;;;;;;;;;;;3.40;99.90;;;;;;5072445;28;20050;-79
2021/12/19 05:35:21;;;;;;;;;;;3.50;99.90;;;;;;5054558;28;20373;-82
2021/12/19 05:45:59;;;;;;;;;;;3.70;99.90;;;;;;5072382;28;20003;-84
2021/12/19 05:48:24;;;;;;;;;;;3.90;99.90;;;;;;5072605;28;19940;-79
2021/12/19 05:50:50;;;;;;;;;;;4.00;99.90;;;;;;5072591;28;19909;-80
2021/12/19 05:53:16;;;;;;;;;;;4.00;99.90;;;;;;5054088;28;19931;-84
2021/12/19 05:55:42;;;;;;;;;;;4.10;99.90;;;;;;5072627;28;19908;-83
2021/12/19 05:58:08;;;;;;;;;;;4.10;99.90;;;;;;5073258;28;19918;-81
2021/12/19 06:00:33;;;;;;;;;;;4.10;99.90;;;;;;5075799;28;19999;-81
2021/12/19 06:03:00;;;;;;;;;;;4.20;99.90;;;;;;5075724;28;19909;-80
2021/12/19 06:05:26;;;;;;;;;;;4.20;99.90;;;;;;5076014;28;19908;-82
2021/12/19 06:07:51;;;;;;;;;;;4.20;99.90;;;;;;5076084;28;19995;-80
2021/12/19 06:10:17;;;;;;;;;;;4.10;99.90;;;;;;5075940;28;20397;-82
2021/12/19 06:12:43;;;;;;;;;;;4.10;99.90;;;;;;5075465;28;20404;-81
2021/12/19 06:15:09;;;;;;;;;;;4.20;99.90;;;;;;5075721;28;19913;-83
2021/12/19 06:17:39;;;;;;;;;;;4.20;99.90;;;;;;5075823;28;19908;-81
2021/12/19 06:20:05;;;;;;;;;;;3.90;99.90;;;;;;5075726;28;19917;-83
2021/12/19 06:22:31;;;;;;;;;;;4.00;99.90;;;;;;5075324;28;19965;-84
2021/12/19 06:24:56;;;;;;;;;;;4.10;99.90;;;;;;5075311;28;19912;-86
2021/12/19 06:27:22;;;;;;;;;;;4.30;99.90;;;;;;5075567;28;19915;-82
2021/12/19 06:29:49;;;;;;;;;;;4.50;99.90;;;;;;5075396;28;19999;-82
2021/12/19 06:32:15;;;;;;;;;;;4.60;99.90;;;;;;5057226;28;20057;-79
2021/12/19 06:34:41;;;;;;;;;;;4.60;99.90;;;;;;5075291;28;19916;-83
2021/12/19 06:37:09;;;;;;;;;;;4.60;99.90;;;;;;5075535;28;19908;-83
2021/12/19 06:39:36;;;;;;;;;;;4.60;99.90;;;;;;5075282;28;19920;-81
2021/12/19 06:42:02;;;;;;;;;;;4.60;99.90;;;;;;5057113;28;20471;-80
2021/12/19 06:44:28;;;;;;;;;;;4.80;99.90;;;;;;5056036;28;20308;-78
2021/12/19 06:46:54;;;;;;;;;;;4.90;99.90;;;;;;5075014;28;19912;-83
2021/12/19 06:49:19;;;;;;;;;;;4.90;99.90;;;;;;5075251;28;19962;-83
2021/12/19 06:51:45;;;;;;;;;;;4.90;99.90;;;;;;5075188;28;20440;-82
2021/12/19 06:54:10;;;;;;;;;;;4.90;99.90;;;;;;5056647;28;19909;-80
2021/12/19 06:56:36;;;;;;;;;;;4.90;99.90;;;;;;5075050;28;20000;-81
2021/12/19 06:59:02;;;;;;;;;;;4.90;99.90;;;;;;5056781;28;20319;-81
2021/12/19 07:01:27;;;;;;;;;;;5.00;99.90;;;;;;5074953;28;20365;-81
2021/12/19 07:03:53;;;;;;;;;;;4.90;99.90;;;;;;5074509;28;19919;-81
2021/12/19 07:06:19;;;;;;;;;;;5.00;99.90;;;;;;5074859;28;19915;-80
2021/12/19 07:08:44;;;;;;;;;;;5.00;99.90;;;;;;5056907;28;19908;-82
2021/12/19 07:11:10;;;;;;;;;;;5.10;99.90;;;;;;5073934;28;19908;-84
2021/12/19 07:13:35;;;;;;;;;;;5.10;99.90;;;;;;5039741;28;19929;-82
2021/12/19 07:16:01;;;;;;;;;;;5.10;99.90;;;;;;5034934;28;19952;-82
2021/12/19 07:18:26;;;;;;;;;;;5.20;99.90;;;;;;5034621;28;19913;-81
2021/12/19 07:20:52;;;;;;;;;;;5.20;99.90;;;;;;5034730;28;19917;-81
2021/12/19 07:23:19;;;;;;;;;;;5.20;99.90;;;;;;5034150;28;20008;-82
2021/12/19 07:25:45;;;;;;;;;;;5.10;99.90;;;;;;5033302;28;20358;-85
2021/12/19 07:28:11;;;;;;;;;;;5.10;99.90;;;;;;5033271;28;19992;-83
2021/12/19 07:30:37;;;;;;;;;;;5.10;99.90;;;;;;5034209;28;19944;-82
2021/12/19 07:33:03;;;;;;;;;;;5.20;99.90;;;;;;5032903;28;19953;-83
2021/12/19 07:35:31;;;;;;;;;;;5.30;99.90;;;;;;5034124;28;20008;-83
2021/12/19 07:37:57;;;;;;;;;;;5.30;99.90;;;;;;5033128;28;20389;-81
2021/12/19 07:40:24;;;;;;;;;;;5.30;99.90;;;;;;5034162;28;19917;-80
2021/12/19 07:42:50;;;;;;;;;;;5.30;99.90;;;;;;5033939;28;19924;-80
2021/12/19 07:45:16;;;;;;;;;;;5.40;99.90;;;;;;5016012;28;20369;-79
2021/12/19 07:47:42;;;;;;;;;;;5.40;99.90;;;;;;5034134;28;20008;-82
2021/12/19 07:50:09;;;;;;;;;;;5.40;99.90;;;;;;5033003;28;19909;-83
2021/12/19 07:52:35;;;;;;;;;;;5.40;99.90;;;;;;5033810;28;19909;-80
2021/12/19 07:55:01;;;;;;;;;;;5.40;99.90;;;;;;5034108;28;19916;-79
2021/12/19 07:57:26;;;;;;;;;;;5.40;99.90;;;;;;5033976;28;20270;-80
2021/12/19 07:59:52;;;;;;;;;;;5.50;99.90;;;;;;5033666;28;19920;-82
2021/12/19 08:02:18;;;;;;;;;;;5.50;99.90;;;;;;5032385;28;19920;-81
2021/12/19 08:04:43;;;;;;;;;;;5.60;99.90;;;;;;5033873;28;19988;-82
2021/12/19 08:07:12;;;;;;;;;;;5.70;99.90;;;;;;5033808;28;20266;-81
2021/12/19 08:09:46;;;;;;;;;;;5.60;99.90;;;;;;5033536;28;19909;-79
2021/12/19 08:12:12;;;;;;;;;;;5.70;99.90;;;;;;5037161;28;20365;-80
2021/12/19 08:14:37;;;;;;;;;;;5.70;99.90;;;;;;5093353;28;19938;-80
2021/12/19 08:17:03;;;;;;;;;;;5.70;99.90;;;;;;5093788;28;19908;-78
2021/12/19 08:19:29;;;;;;;;;;;5.70;99.90;;;;;;5093746;28;19965;-81
2021/12/19 08:21:55;;;;;;;;;;;5.80;99.90;;;;;;5074532;28;19953;-80
2021/12/19 08:24:22;;;;;;;;;;;5.80;99.90;;;;;;5093227;28;19908;-78
2021/12/19 08:26:47;;;;;;;;;;;5.80;99.90;;;;;;5093654;28;20093;-81
2021/12/19 08:29:13;;;;;;;;;;;5.90;99.90;;;;;;5093556;28;19959;-79
2021/12/19 08:31:40;;;;;;;;;;;5.90;99.90;;;;;;5093578;28;20419;-78
2021/12/19 08:34:05;;;;;;;;;;;5.90;99.90;;;;;;5093096;28;20326;-80
2021/12/19 08:36:31;;;;;;;;;;;6.00;99.90;;;;;;5093552;28;19908;-81
2021/12/19 08:38:57;;;;;;;;;;;6.00;99.90;;;;;;5075243;28;19913;-80
2021/12/19 08:41:23;;;;;;;;;;;6.10;99.90;;;;;;5093583;28;20025;-81
2021/12/19 08:43:48;;;;;;;;;;;6.00;99.90;;;;;;5073532;28;19965;-80
2021/12/19 08:46:15;;;;;;;;;;;6.10;99.90;;;;;;5093414;28;20386;-80
2021/12/19 08:48:40;;;;;;;;;;;6.00;99.90;;;;;;5075247;28;19908;-79
2021/12/19 08:51:06;;;;;;;;;;;6.10;99.90;;;;;;5075326;28;19908;-79
2021/12/19 08:53:32;;;;;;;;;;;6.20;99.90;;;;;;5093006;28;19943;-81
2021/12/19 08:55:57;;;;;;;;;;;6.30;99.90;;;;;;5093307;28;19915;-81
2021/12/19 08:58:23;;;;;;;;;;;6.30;99.90;;;;;;5093256;28;19908;-78
2021/12/19 09:00:49;;;;;;;;;;;6.30;99.90;;;;;;5093363;28;20338;-80
2021/12/19 09:03:15;;;;;;;;;;;6.30;99.90;;;;;;5085949;28;19995;-79
2021/12/19 09:05:40;;;;;;;;;;;6.30;99.90;;;;;;5055055;28;19912;-80
2021/12/19 09:08:06;;;;;;;;;;;6.40;99.90;;;;;;5054795;28;19908;-80
2021/12/19 09:10:32;;;;;;;;;;;6.40;99.90;;;;;;5072921;28;19914;-81
2021/12/19 09:12:58;;;;;;;;;;;6.50;99.90;;;;;;5072407;28;20347;-78
2021/12/19 09:15:23;;;;;;;;;;;6.50;99.90;;;;;;5054752;28;20327;-83
2021/12/19 09:17:49;;;;;;;;;;;6.50;99.90;;;;;;5073001;28;19909;-79
2021/12/19 09:20:15;;;;;;;;;;;6.50;99.90;;;;;;5054741;28;20368;-82
2021/12/19 09:22:41;;;;;;;;;;;6.60;99.90;;;;;;5074093;28;19909;-80
2021/12/19 09:25:07;;;;;;;;;;;6.60;99.90;;;;;;5093107;28;20165;-79
2021/12/19 09:27:33;;;;;;;;;;;6.70;99.90;;;;;;5093170;28;20387;-79
2021/12/19 09:29:58;;;;;;;;;;;6.70;99.90;;;;;;5092820;28;19938;-78
2021/12/19 09:32:24;;;;;;;;;;;6.70;99.90;;;;;;5093115;28;20361;-79
2021/12/19 09:34:49;;;;;;;;;;;6.80;99.90;;;;;;5077893;28;19908;-82
2021/12/19 09:37:15;;;;;;;;;;;6.80;99.90;;;;;;5096826;28;19915;-80
2021/12/19 09:39:41;;;;;;;;;;;6.80;99.90;;;;;;5096673;28;20428;-81
2021/12/19 09:42:09;;;;;;;;;;;6.90;99.90;;;;;;5078425;28;19923;-80
2021/12/19 09:44:36;;;;;;;;;;;6.90;99.90;;;;;;5075475;28;19970;-80
2021/12/19 09:47:02;;;;;;;;;;;6.80;99.90;;;;;;5078132;28;19959;-83
2021/12/19 09:49:28;;;;;;;;;;;6.90;99.90;;;;;;5096618;28;19954;-80
2021/12/19 09:51:53;;;;;;;;;;;6.90;99.90;;;;;;5096481;28;19954;-81
2021/12/19 09:54:20;;;;;;;;;;;6.90;99.90;;;;;;5096044;28;19908;-78
2021/12/19 09:56:46;;;;;;;;;;;6.90;99.90;;;;;;5096531;28;19958;-78
2021/12/19 09:59:13;;;;;;;;;;;7.00;99.90;;;;;;5096106;28;19912;-79
2021/12/19 10:01:39;;;;;;;;;;;7.10;99.90;;;;;;5078204;28;19912;-82
2021/12/19 10:04:25;;;;;;;;;;;7.10;99.90;;;;;;5095982;28;19909;-81
2021/12/19 10:07:02;;;;;;;;;;;7.10;99.90;;;;;;5096151;28;19995;-81
2021/12/19 10:09:27;;;;;;;;;;;7.20;99.90;;;;;;5096231;28;19943;-79
2021/12/19 10:14:37;;;;;;;;;;;7.30;99.90;;;;;;5095396;28;19920;-83
2021/12/19 10:17:23;;;;;;;;;;;7.30;99.90;;;;;;5096122;28;19922;-80
2021/12/19 10:19:49;;;;;;;;;;;7.30;99.90;;;;;;5095306;28;19923;-77
2021/12/19 10:22:34;;;;;;;;;;;7.40;99.90;;;;;;5077607;28;19909;-82
2021/12/19 10:25:09;;;;;;;;;;;7.50;99.90;;;;;;5077222;28;19908;-82
2021/12/19 10:27:35;;;;;;;;;;;7.50;99.90;;;;;;5095980;28;19981;-80
2021/12/19 10:30:02;;;;;;;;;;;7.60;99.90;;;;;;5095575;28;20007;-81
2021/12/19 10:32:28;;;;;;;;;;;7.60;99.90;;;;;;5077565;28;19916;-79
2021/12/19 10:35:13;;;;;;;;;;;7.60;99.90;;;;;;5077194;28;19912;-78
2021/12/19 10:37:39;;;;;;;;;;;7.70;99.90;;;;;;5075506;28;19917;-80
2021/12/19 10:40:05;;;;;;;;;;;7.80;99.90;;;;;;5075344;28;19920;-78
2021/12/19 10:42:35;;;;;;;;;;;7.70;99.90;;;;;;5075428;28;19913;-81
2021/12/19 10:47:44;;;;;;;;;;;7.80;99.90;;;;;;5075095;28;20338;-81
2021/12/19 10:50:10;;;;;;;;;;;7.90;99.90;;;;;;5075139;28;19908;-79
2021/12/19 10:52:38;;;;;;;;;;;7.90;99.90;;;;;;5075259;28;19909;-81
2021/12/19 10:55:07;;;;;;;;;;;7.90;99.90;;;;;;5074694;28;19909;-82
2021/12/19 10:57:35;;;;;;;;;;;7.90;99.90;;;;;;5075040;28;20291;-79
2021/12/19 11:00:04;;;;;;;;;;;7.90;99.90;;;;;;5056723;28;19919;-80
2021/12/19 11:02:37;;;;;;;;;;;7.90;99.90;;;;;;5074753;28;19908;-79
2021/12/19 11:05:03;;;;;;;;;;;8.00;99.90;;;;;;5074509;28;20430;-80
2021/12/19 11:07:28;;;;;;;;;;;8.20;99.90;;;;;;5056926;28;20416;-78
2021/12/19 11:09:54;;;;;;;;;;;8.20;99.90;;;;;;5074804;28;19947;-85
2021/12/19 11:12:19;;;;;;;;;;;8.20;99.90;;;;;;5074551;28;19920;-82
2021/12/19 11:14:48;;;;;;;;;;;8.10;99.90;;;;;;5056282;28;19909;-82
2021/12/19 11:17:20;;;;;;;;;;;8.10;99.90;;;;;;5074804;28;19917;-81
2021/12/19 11:19:47;;;;;;;;;;;8.00;99.90;;;;;;5074599;28;19969;-80
2021/12/19 11:22:14;;;;;;;;;;;8.10;99.90;;;;;;5074514;28;19946;-82
2021/12/19 11:24:39;;;;;;;;;;;8.10;99.90;;;;;;5074061;28;19915;-77
2021/12/19 11:27:06;;;;;;;;;;;8.10;99.90;;;;;;5074587;28;20284;-78
2021/12/19 11:29:32;;;;;;;;;;;8.10;99.90;;;;;;5074297;28;19958;-82
2021/12/19 11:32:00;;;;;;;;;;;8.20;99.90;;;;;;5056556;28;19909;-81
2021/12/19 11:34:31;;;;;;;;;;;8.20;99.90;;;;;;5073810;28;20398;-77
2021/12/19 11:37:06;;;;;;;;;;;8.30;99.90;;;;;;5074375;28;20254;-82
2021/12/19 11:39:36;;;;;;;;;;;8.30;99.90;;;;;;5074047;28;20368;-79
2021/12/19 11:42:06;;;;;;;;;;;8.30;99.90;;;;;;5074334;28;19909;-82
2021/12/19 11:44:32;;;;;;;;;;;8.30;99.90;;;;;;5073705;28;19915;-79
2021/12/19 11:46:59;;;;;;;;;;;8.30;99.90;;;;;;5037044;28;19923;-80
2021/12/19 11:49:27;;;;;;;;;;;8.40;99.90;;;;;;5074388;28;20321;-79
2021/12/19 11:52:11;;;;;;;;;;;8.50;99.90;;;;;;5073977;28;19909;-78
2021/12/19 11:54:37;;;;;;;;;;;8.50;99.90;;;;;;5073506;28;19908;-83
2021/12/19 11:57:07;;;;;;;;;;;8.50;99.90;;;;;;5073905;28;19999;-82
2021/12/19 11:59:33;;;;;;;;;;;8.60;99.90;;;;;;5073473;28;20266;-81
2021/12/19 12:02:17;;;;;;;;;;;8.60;99.90;;;;;;5073870;28;19935;-80
2021/12/19 12:04:43;;;;;;;;;;;8.70;99.90;;;;;;5073312;28;20426;-79
2021/12/19 12:07:08;;;;;;;;;;;8.80;99.90;;;;;;5055805;28;19963;-83
2021/12/19 12:09:38;;;;;;;;;;;8.90;99.90;;;;;;5073679;28;19909;-81
2021/12/19 12:12:08;;;;;;;;;;;8.90;99.90;;;;;;5073714;28;20003;-80
2021/12/19 12:14:38;;;;;;;;;;;9.00;99.90;;;;;;5073648;28;19962;-79
2021/12/19 12:17:08;;;;;;;;;;;9.00;99.90;;;;;;5074203;28;19948;-81
2021/12/19 12:19:51;;;;;;;;;;;9.00;99.90;;;;;;5056280;28;20015;-80
2021/12/19 12:25:06;;;;;;;;;;;9.00;99.90;;;;;;5073686;28;19908;-80
2021/12/19 12:27:52;;;;;;;;;;;9.10;99.90;;;;;;5073684;28;19915;-82
2021/12/19 12:30:21;;;;;;;;;;;9.10;99.90;;;;;;5073355;28;19908;-81
2021/12/19 12:32:47;;;;;;;;;;;9.00;99.90;;;;;;5073415;28;19913;-79
2021/12/19 12:35:13;;;;;;;;;;;9.10;99.90;;;;;;5073045;28;19909;-80
2021/12/19 12:37:40;;;;;;;;;;;9.10;99.90;;;;;;5073365;28;19912;-78
2021/12/19 12:40:17;;;;;;;;;;;9.10;99.90;;;;;;5073319;28;19995;-78
2021/12/19 12:42:57;;;;;;;;;;;9.20;99.90;;;;;;5055119;28;19909;-81
2021/12/19 12:45:23;;;;;;;;;;;9.20;99.90;;;;;;5072784;28;19961;-82
2021/12/19 12:47:49;;;;;;;;;;;9.20;99.90;;;;;;5053696;28;19921;-80
2021/12/19 12:50:15;;;;;;;;;;;9.20;99.90;;;;;;5073373;28;19909;-79
2021/12/19 12:52:40;;;;;;;;;;;9.20;99.90;;;;;;5073251;28;19915;-78
2021/12/19 12:55:06;;;;;;;;;;;9.30;99.90;;;;;;5072719;28;19951;-79
2021/12/19 12:57:35;;;;;;;;;;;9.40;99.90;;;;;;5055237;28;19908;-78
2021/12/19 13:00:00;;;;;;;;;;;9.50;99.90;;;;;;5072919;28;19920;-79
2021/12/19 13:02:40;;;;;;;;;;;9.40;99.90;;;;;;5073201;28;19909;-82
2021/12/19 13:05:09;;;;;;;;;;;9.30;99.90;;;;;;5072665;28;19915;-80
2021/12/19 13:07:35;;;;;;;;;;;9.30;99.90;;;;;;5073095;28;20399;-80
2021/12/19 13:10:01;;;;;;;;;;;9.20;99.90;;;;;;5058925;28;19956;-78
2021/12/19 13:12:34;;;;;;;;;;;9.20;99.90;;;;;;5076979;28;20299;-80
2021/12/19 13:15:01;;;;;;;;;;;9.10;99.90;;;;;;5076594;28;20403;-79
2021/12/19 13:17:27;;;;;;;;;;;9.20;99.90;;;;;;5077123;28;20395;-78
2021/12/19 13:20:08;;;;;;;;;;;9.30;99.90;;;;;;5076807;28;19959;-83
2021/12/19 13:22:47;;;;;;;;;;;9.30;99.90;;;;;;5076721;28;19909;-82
2021/12/19 13:25:18;;;;;;;;;;;9.20;99.90;;;;;;5076441;28;20427;-83
2021/12/19 13:27:45;;;;;;;;;;;9.10;99.90;;;;;;5058905;28;20369;-78
2021/12/19 13:30:24;;;;;;;;;;;9.10;99.90;;;;;;5076430;28;19916;-79
2021/12/19 13:32:50;;;;;;;;;;;9.00;99.90;;;;;;5058759;28;19962;-80
2021/12/19 13:35:25;;;;;;;;;;;9.00;99.90;;;;;;5073548;28;19912;-83
2021/12/19 13:37:59;;;;;;;;;;;9.00;99.90;;;;;;5096903;28;19943;-81
2021/12/19 13:40:28;;;;;;;;;;;9.00;99.90;;;;;;5096709;28;19912;-83
2021/12/19 13:43:04;;;;;;;;;;;8.90;99.90;;;;;;5096765;28;20288;-80
2021/12/19 13:45:32;;;;;;;;;;;9.00;99.90;;;;;;5096277;28;19909;-82
2021/12/19 13:48:03;;;;;;;;;;;9.00;99.90;;;;;;5077315;28;20030;-78
2021/12/19 13:50:35;;;;;;;;;;;9.00;99.90;;;;;;5096527;28;19912;-83
2021/12/19 13:53:01;;;;;;;;;;;9.00;99.90;;;;;;5096686;28;19914;-80
2021/12/19 13:55:26;;;;;;;;;;;8.90;99.90;;;;;;5096109;28;20376;-79
2021/12/19 13:58:10;;;;;;;;;;;8.90;99.90;;;;;;5096420;28;19995;-78
2021/12/19 14:00:38;;;;;;;;;;;8.90;99.90;;;;;;5096119;28;20368;-79
2021/12/19 14:03:04;;;;;;;;;;;8.90;99.90;;;;;;5096323;28;19998;-80
2021/12/19 14:05:35;;;;;;;;;;;8.90;99.90;;;;;;5077730;28;19996;-80
2021/12/19 14:08:15;;;;;;;;;;;8.90;99.90;;;;;;5078037;28;19908;-79
2021/12/19 14:10:40;;;;;;;;;;;8.80;99.90;;;;;;5096191;28;19908;-79
2021/12/19 14:13:14;;;;;;;;;;;8.90;99.90;;;;;;5095936;28;20300;-80
2021/12/19 14:15:49;;;;;;;;;;;8.90;99.90;;;;;;5077515;28;19914;-79
2021/12/19 14:18:26;;;;;;;;;;;8.90;99.90;;;;;;5096067;28;20097;-79
2021/12/19 14:20:52;;;;;;;;;;;8.80;99.90;;;;;;5095896;28;19912;-81
2021/12/19 14:23:18;;;;;;;;;;;8.80;99.90;;;;;;5095756;28;19953;-80
2021/12/19 14:25:44;;;;;;;;;;;8.80;99.90;;;;;;5077307;28;20395;-82
2021/12/19 14:28:19;;;;;;;;;;;8.80;99.90;;;;;;5095908;28;19909;-80
2021/12/19 14:30:58;;;;;;;;;;;8.70;99.90;;;;;;5095959;28;19955;-78
2021/12/19 14:33:30;;;;;;;;;;;8.80;99.90;;;;;;5095817;28;19909;-81
2021/12/19 14:35:56;;;;;;;;;;;8.80;99.90;;;;;;5076256;28;19952;-79
2021/12/19 14:38:22;;;;;;;;;;;8.70;99.90;;;;;;5075464;28;19908;-81
2021/12/19 14:40:48;;;;;;;;;;;8.70;99.90;;;;;;5075332;28;19916;-79
2021/12/19 14:43:17;;;;;;;;;;;8.70;99.90;;;;;;5056997;28;19915;-79
2021/12/19 14:45:43;;;;;;;;;;;8.70;99.90;;;;;;5056792;28;19940;-83
2021/12/19 14:48:15;;;;;;;;;;;8.70;99.90;;;;;;5056206;28;19920;-80
2021/12/19 14:50:51;;;;;;;;;;;8.70;99.90;;;;;;5075375;28;19967;-81
2021/12/19 14:53:24;;;;;;;;;;;8.60;99.90;;;;;;5075131;28;19908;-81
2021/12/19 14:55:56;;;;;;;;;;;8.70;99.90;;;;;;5074771;28;19916;-77
2021/12/19 14:58:22;;;;;;;;;;;8.70;99.90;;;;;;5074899;28;19944;-81
2021/12/19 15:00:52;;;;;;;;;;;8.70;99.90;;;;;;5075087;28;19913;-83
2021/12/19 15:03:18;;;;;;;;;;;8.70;99.90;;;;;;5057090;28;19909;-80
2021/12/19 15:05:44;;;;;;;;;;;8.60;99.90;;;;;;5074599;28;19932;-80
2021/12/19 15:08:13;;;;;;;;;;;8.50;99.90;;;;;;5074893;28;19909;-81
2021/12/19 15:10:39;;;;;;;;;;;8.50;99.90;;;;;;5074644;28;19920;-79
2021/12/19 15:13:05;;;;;;;;;;;8.40;99.90;;;;;;5074651;28;19921;-79
2021/12/19 15:15:31;;;;;;;;;;;8.50;99.90;;;;;;5056317;28;19909;-82
2021/12/19 15:17:56;;;;;;;;;;;8.50;99.90;;;;;;5074819;28;19908;-78
2021/12/19 15:20:24;;;;;;;;;;;8.50;99.90;;;;;;5074490;28;19919;-81
2021/12/19 15:22:49;;;;;;;;;;;8.50;99.90;;;;;;5074531;28;19916;-79
2021/12/19 15:25:15;;;;;;;;;;;8.40;99.90;;;;;;5074156;28;20258;-84
2021/12/19 15:27:42;;;;;;;;;;;8.30;99.90;;;;;;5074508;28;19931;-82
2021/12/19 15:30:09;;;;;;;;;;;8.30;99.90;;;;;;5074116;28;19912;-78
2021/12/19 15:32:34;;;;;;;;;;;8.30;99.90;;;;;;5073916;28;19974;-80
2021/12/19 15:35:04;;;;;;;;;;;8.20;99.90;;;;;;5073853;28;20373;-78
2021/12/19 15:37:30;;;;;;;;;;;8.30;99.90;;;;;;5056579;28;19927;-84
2021/12/19 15:39:55;;;;;;;;;;;8.20;99.90;;;;;;5074318;28;19916;-82
2021/12/19 15:42:21;;;;;;;;;;;8.30;99.90;;;;;;5056209;28;19931;-83
2021/12/19 15:44:46;;;;;;;;;;;8.30;99.90;;;;;;5055838;28;19915;-82
2021/12/19 15:47:12;;;;;;;;;;;8.30;99.90;;;;;;5054838;28;19916;-82
2021/12/19 15:49:38;;;;;;;;;;;8.20;99.90;;;;;;5074095;28;19909;-79
2021/12/19 15:52:03;;;;;;;;;;;8.20;99.90;;;;;;5074207;28;19916;-81
2021/12/19 15:54:30;;;;;;;;;;;8.10;99.90;;;;;;5073717;28;19948;-82